Jupiter Spirit — A8ZC2 — position and weather

sailwx.info

Track history (hours):
 
Tides and Currents Weather Stations Pressure Air Temp Water Temp Dewpoint Dewpoint Depression Visibility Wind Speed Wind Dir Waves Ship Positions

Jupiter Spirit

Last reported at 2014-Jul-22 22:31 UTC. Time now 2014-Jul-29 16:49 UTC.
Position N 35°16' W 011°56'.

Length 183 m; draft 8.5 m.

Type: Cargo ship. MMSI: 636015173.

Date/timePositionNaut miles runAvg speedWind from/ knotsBaromVisibWave heightAir tempDewpointWater temp
2014-Jul-22 22:31N 35°16' W 011°56'1616.4
2014-Jul-22 21:32N 35°32' W 011°53'1816.4
2014-Jul-22 20:26N 35°50' W 011°50'1516.3
2014-Jul-22 19:32N 36°05' W 011°47'1616.3
2014-Jul-22 18:33N 36°21' W 011°44'1716.8
2014-Jul-22 17:31N 36°38' W 011°41'1616.1
2014-Jul-22 16:33N 36°53' W 011°38'1616.1
2014-Jul-22 15:33N 37°09' W 011°35'1616.3
2014-Jul-22 14:32N 37°25' W 011°33'1816.3
2014-Jul-22 13:27N 37°43' W 011°29'1516.3
2014-Jul-22 12:33N 37°57' W 011°26'1616.2
2014-Jul-22 11:33N 38°13' W 011°23'1616.1
2014-Jul-22 10:33N 38°29' W 011°20'3916.2
2014-Jul-22 08:09N 39°08' W 011°13'  
2014-Jul-20 01:12N 50°21' W 000°53'4314.9
2014-Jul-19 22:17N 50°33' E 000°12'1216.5
2014-Jul-19 21:33N 50°36' E 000°31'2115.9
2014-Jul-19 20:14N 50°47' E 000°59'1015.1
2014-Jul-19 19:33N 50°54' E 001°11'1413.7
2014-Jul-19 18:33N 51°04' E 001°27'1312.7
2014-Jul-19 17:34N 51°14' E 001°39'1413.7
2014-Jul-19 16:33N 51°26' E 001°30'1110.9
2014-Jul-19 15:34N 51°29' E 001°13'1514.5
2014-Jul-19 14:34N 51°28' E 000°50'4 3.7
2014-Jul-19 13:33N 51°26' E 000°44'0 0.0
2014-Jul-19 12:33N 51°26' E 000°44'0 0.0
2014-Jul-19 11:33N 51°26' E 000°44'0 0.0
2014-Jul-19 10:30N 51°26' E 000°44'0 0.0
2014-Jul-19 09:33N 51°26' E 000°44'0 0.0
2014-Jul-19 08:33N 51°26' E 000°44'0 0.0
2014-Jul-19 07:33N 51°26' E 000°44'0 0.0
2014-Jul-19 06:33N 51°26' E 000°44'0 0.0
2014-Jul-19 05:30N 51°26' E 000°44'0 0.0
2014-Jul-19 04:33N 51°26' E 000°44'0 0.0
2014-Jul-19 03:33N 51°26' E 000°44'5 5.5
2014-Jul-19 02:33N 51°29' E 000°52'1717.3
2014-Jul-19 01:33N 51°29' E 001°20'8 7.9
2014-Jul-19 00:34N 51°26' E 001°32'4 4.3
2014-Jul-18 23:34N 51°29' E 001°37'1211.9
2014-Jul-18 22:33N 51°28' E 001°56'1615.0
2014-Jul-18 21:30N 51°21' E 002°19'1414.9
2014-Jul-18 20:33N 51°22' E 002°41'1414.2
2014-Jul-18 19:33N 51°24' E 003°04'1716.9
2014-Jul-18 18:33N 51°25' E 003°31'1111.0
2014-Jul-18 17:34N 51°21' E 003°47'10 9.6
2014-Jul-18 16:34N 51°24' E 004°02'1010.1
2014-Jul-18 15:33N 51°19' E 004°16'3 2.8
2014-Jul-18 14:34N 51°16' E 004°17'0 0.1
2014-Jul-18 13:34N 51°16' E 004°17'2 1.6
2014-Jul-18 12:33N 51°16' E 004°14'0 0.0
2014-Jul-18 11:33N 51°16' E 004°14'0 0.0
2014-Jul-18 10:30N 51°16' E 004°14'0 0.0
2014-Jul-18 09:30N 51°16' E 004°14'0 0.0
2014-Jul-18 08:33N 51°16' E 004°14'0 0.0
2014-Jul-18 07:27N 51°16' E 004°14'0 0.0
2014-Jul-18 06:30N 51°16' E 004°14'0 0.0
2014-Jul-18 05:33N 51°16' E 004°14'0 0.0
2014-Jul-18 04:33N 51°16' E 004°14'0 0.0
2014-Jul-18 03:33N 51°16' E 004°14'0 0.0
2014-Jul-18 02:33N 51°16' E 004°14'0 0.0
2014-Jul-18 01:33N 51°16' E 004°14'0 0.0
2014-Jul-18 00:33N 51°16' E 004°14'0 0.0
2014-Jul-17 23:33N 51°16' E 004°14'0 0.0
2014-Jul-17 22:33N 51°16' E 004°14'0 0.0
2014-Jul-17 21:33N 51°16' E 004°14'0 0.0
2014-Jul-17 20:33N 51°16' E 004°14'0 0.0
2014-Jul-17 19:33N 51°16' E 004°14'0 0.0
2014-Jul-17 18:33N 51°16' E 004°14'0 0.0
2014-Jul-17 17:33N 51°16' E 004°14'0 0.0
2014-Jul-17 16:33N 51°16' E 004°14'0 0.0
2014-Jul-17 15:33N 51°16' E 004°14'0 0.0
2014-Jul-17 14:31N 51°16' E 004°14'0 0.0
2014-Jul-17 13:31N 51°16' E 004°14'0 0.0
2014-Jul-17 12:32N 51°16' E 004°14'2 1.6
2014-Jul-17 11:34N 51°16' E 004°17'2 2.1
2014-Jul-17 10:34N 51°18' E 004°18'8 8.2
2014-Jul-17 09:34N 51°22' E 004°07'8 7.7
2014-Jul-17 08:33N 51°22' E 003°55'10 9.8
2014-Jul-17 07:33N 51°26' E 003°41'7 7.3
2014-Jul-17 06:33N 51°25' E 003°29'1212.2
2014-Jul-17 05:33N 51°24' E 003°10'7 7.1
2014-Jul-17 04:33N 51°23' E 002°58'1110.8
2014-Jul-17 03:33N 51°22' E 002°41'6 6.2
2014-Jul-17 02:33N 51°22' E 002°31'10 9.8
2014-Jul-17 01:33N 51°18' E 002°17'1414.0
2014-Jul-17 00:33N 51°11' E 001°57'1312.7
2014-Jul-16 23:34N 51°04' E 001°41'1211.9
2014-Jul-16 22:33N 50°55' E 001°28'1211.8
2014-Jul-16 21:33N 50°44' E 001°22'1412.4
2014-Jul-16 20:27N 50°34' E 001°06'1112.7
2014-Jul-16 19:33N 50°29' E 000°50'1312.8
2014-Jul-16 18:33N 50°26' E 000°31'1312.6
2014-Jul-16 17:33N 50°22' E 000°12'1312.6
2014-Jul-16 16:33N 50°19' W 000°07'1212.4
2014-Jul-16 15:33N 50°15' W 000°26'1312.9
2014-Jul-16 14:33N 50°12' W 000°45'1414.3
2014-Jul-16 13:33N 50°08' W 001°06'1616.0
2014-Jul-16 12:33N 50°03' W 001°30'2117.3
2014-Jul-16 11:19N 49°57' W 002°02'1817.7
2014-Jul-16 10:18N 49°52' W 002°29'  
Track history (hours):
 
Tides and Currents Weather Stations Pressure Air Temp Water Temp Dewpoint Dewpoint Depression Visibility Wind Speed Wind Dir Waves Ship Positions

Jupiter Spirit

Last reported at 2014-Jul-22 22:31 UTC. Time now 2014-Jul-29 16:49 UTC.
Position N 35°16' W 011°56'.

Length 183 m; draft 8.5 m.

Type: Cargo ship. MMSI: 636015173.

Date/timePositionNaut miles runAvg speedWind from/ knotsBaromVisibWave heightAir tempDewpointWater temp
2014-Jul-22 22:31N 35°16' W 011°56'1616.4
2014-Jul-22 21:32N 35°32' W 011°53'1816.4
2014-Jul-22 20:26N 35°50' W 011°50'1516.3
2014-Jul-22 19:32N 36°05' W 011°47'1616.3
2014-Jul-22 18:33N 36°21' W 011°44'1716.8
2014-Jul-22 17:31N 36°38' W 011°41'1616.1
2014-Jul-22 16:33N 36°53' W 011°38'1616.1
2014-Jul-22 15:33N 37°09' W 011°35'1616.3
2014-Jul-22 14:32N 37°25' W 011°33'1816.3
2014-Jul-22 13:27N 37°43' W 011°29'1516.3
2014-Jul-22 12:33N 37°57' W 011°26'1616.2
2014-Jul-22 11:33N 38°13' W 011°23'1616.1
2014-Jul-22 10:33N 38°29' W 011°20'3916.2
2014-Jul-22 08:09N 39°08' W 011°13'  
2014-Jul-20 01:12N 50°21' W 000°53'4314.9
2014-Jul-19 22:17N 50°33' E 000°12'1216.5
2014-Jul-19 21:33N 50°36' E 000°31'2115.9
2014-Jul-19 20:14N 50°47' E 000°59'1015.1
2014-Jul-19 19:33N 50°54' E 001°11'1413.7
2014-Jul-19 18:33N 51°04' E 001°27'1312.7
2014-Jul-19 17:34N 51°14' E 001°39'1413.7
2014-Jul-19 16:33N 51°26' E 001°30'1110.9
2014-Jul-19 15:34N 51°29' E 001°13'1514.5
2014-Jul-19 14:34N 51°28' E 000°50'4 3.7
2014-Jul-19 13:33N 51°26' E 000°44'0 0.0
2014-Jul-19 12:33N 51°26' E 000°44'0 0.0
2014-Jul-19 11:33N 51°26' E 000°44'0 0.0
2014-Jul-19 10:30N 51°26' E 000°44'0 0.0
2014-Jul-19 09:33N 51°26' E 000°44'0 0.0
2014-Jul-19 08:33N 51°26' E 000°44'0 0.0
2014-Jul-19 07:33N 51°26' E 000°44'0 0.0
2014-Jul-19 06:33N 51°26' E 000°44'0 0.0
2014-Jul-19 05:30N 51°26' E 000°44'0 0.0
2014-Jul-19 04:33N 51°26' E 000°44'0 0.0
2014-Jul-19 03:33N 51°26' E 000°44'5 5.5
2014-Jul-19 02:33N 51°29' E 000°52'1717.3
2014-Jul-19 01:33N 51°29' E 001°20'8 7.9
2014-Jul-19 00:34N 51°26' E 001°32'4 4.3
2014-Jul-18 23:34N 51°29' E 001°37'1211.9
2014-Jul-18 22:33N 51°28' E 001°56'1615.0
2014-Jul-18 21:30N 51°21' E 002°19'1414.9
2014-Jul-18 20:33N 51°22' E 002°41'1414.2
2014-Jul-18 19:33N 51°24' E 003°04'1716.9
2014-Jul-18 18:33N 51°25' E 003°31'1111.0
2014-Jul-18 17:34N 51°21' E 003°47'10 9.6
2014-Jul-18 16:34N 51°24' E 004°02'1010.1
2014-Jul-18 15:33N 51°19' E 004°16'3 2.8
2014-Jul-18 14:34N 51°16' E 004°17'0 0.1
2014-Jul-18 13:34N 51°16' E 004°17'2 1.6
2014-Jul-18 12:33N 51°16' E 004°14'0 0.0
2014-Jul-18 11:33N 51°16' E 004°14'0 0.0
2014-Jul-18 10:30N 51°16' E 004°14'0 0.0
2014-Jul-18 09:30N 51°16' E 004°14'0 0.0
2014-Jul-18 08:33N 51°16' E 004°14'0 0.0
2014-Jul-18 07:27N 51°16' E 004°14'0 0.0
2014-Jul-18 06:30N 51°16' E 004°14'0 0.0
2014-Jul-18 05:33N 51°16' E 004°14'0 0.0
2014-Jul-18 04:33N 51°16' E 004°14'0 0.0
2014-Jul-18 03:33N 51°16' E 004°14'0 0.0
2014-Jul-18 02:33N 51°16' E 004°14'0 0.0
2014-Jul-18 01:33N 51°16' E 004°14'0 0.0
2014-Jul-18 00:33N 51°16' E 004°14'0 0.0
2014-Jul-17 23:33N 51°16' E 004°14'0 0.0
2014-Jul-17 22:33N 51°16' E 004°14'0 0.0
2014-Jul-17 21:33N 51°16' E 004°14'0 0.0
2014-Jul-17 20:33N 51°16' E 004°14'0 0.0
2014-Jul-17 19:33N 51°16' E 004°14'0 0.0
2014-Jul-17 18:33N 51°16' E 004°14'0 0.0
2014-Jul-17 17:33N 51°16' E 004°14'0 0.0
2014-Jul-17 16:33N 51°16' E 004°14'0 0.0
2014-Jul-17 15:33N 51°16' E 004°14'0 0.0
2014-Jul-17 14:31N 51°16' E 004°14'0 0.0
2014-Jul-17 13:31N 51°16' E 004°14'0 0.0
2014-Jul-17 12:32N 51°16' E 004°14'2 1.6
2014-Jul-17 11:34N 51°16' E 004°17'2 2.1
2014-Jul-17 10:34N 51°18' E 004°18'8 8.2
2014-Jul-17 09:34N 51°22' E 004°07'8 7.7
2014-Jul-17 08:33N 51°22' E 003°55'10 9.8
2014-Jul-17 07:33N 51°26' E 003°41'7 7.3
2014-Jul-17 06:33N 51°25' E 003°29'1212.2
2014-Jul-17 05:33N 51°24' E 003°10'7 7.1
2014-Jul-17 04:33N 51°23' E 002°58'1110.8
2014-Jul-17 03:33N 51°22' E 002°41'6 6.2
2014-Jul-17 02:33N 51°22' E 002°31'10 9.8
2014-Jul-17 01:33N 51°18' E 002°17'1414.0
2014-Jul-17 00:33N 51°11' E 001°57'1312.7
2014-Jul-16 23:34N 51°04' E 001°41'1211.9
2014-Jul-16 22:33N 50°55' E 001°28'1211.8
2014-Jul-16 21:33N 50°44' E 001°22'1412.4
2014-Jul-16 20:27N 50°34' E 001°06'1112.7
2014-Jul-16 19:33N 50°29' E 000°50'1312.8
2014-Jul-16 18:33N 50°26' E 000°31'1312.6
2014-Jul-16 17:33N 50°22' E 000°12'1312.6
2014-Jul-16 16:33N 50°19' W 000°07'1212.4
2014-Jul-16 15:33N 50°15' W 000°26'1312.9
2014-Jul-16 14:33N 50°12' W 000°45'1414.3
2014-Jul-16 13:33N 50°08' W 001°06'1616.0
2014-Jul-16 12:33N 50°03' W 001°30'2117.3
2014-Jul-16 11:19N 49°57' W 002°02'1817.7
2014-Jul-16 10:18N 49°52' W 002°29'  

Dump ship's entire track history